Time;durP1;ratioP1;P1;durP2;ratioP2;P2;SDS_P1;SDS_P2;PMS_P1;PMS_P2;Temp;Humidity;BMP_temperature;BMP_pressure;BME280_temperature;BME280_humidity;BME280_pressure;Samples;Min_cycle;Max_cycle;Signal;HPM_P1;HPM_P2
2022/10/30 00:02:11;;;;;;;;;;;8.60;99.90;;;;;;5054533;28;19948;-69
2022/10/30 00:04:37;;;;;;;;;;;8.70;99.90;;;;;;5053844;28;19970;-69
2022/10/30 00:07:02;;;;;;;;;;;8.70;99.90;;;;;;5036227;28;19917;-70
2022/10/30 00:09:28;;;;;;;;;;;8.70;99.90;;;;;;5054153;28;19971;-70
2022/10/30 00:11:53;;;;;;;;;;;8.70;99.90;;;;;;5053892;28;19927;-70
2022/10/30 00:14:19;;;;;;;;;;;8.80;99.90;;;;;;5054444;28;20004;-70
2022/10/30 00:16:44;;;;;;;;;;;8.80;99.90;;;;;;5054018;28;19913;-70
2022/10/30 00:19:10;;;;;;;;;;;8.80;99.90;;;;;;5053972;28;19931;-70
2022/10/30 00:21:35;;;;;;;;;;;8.80;99.90;;;;;;5054186;28;19917;-70
2022/10/30 00:24:01;;;;;;;;;;;8.80;99.90;;;;;;5054175;28;19913;-70
2022/10/30 00:26:26;;;;;;;;;;;8.80;99.90;;;;;;5053779;28;19908;-70
2022/10/30 00:28:53;;;;;;;;;;;8.80;99.90;;;;;;5054096;28;19985;-70
2022/10/30 00:31:19;;;;;;;;;;;8.80;99.90;;;;;;5053609;28;19975;-70
2022/10/30 00:33:48;;;;;;;;;;;8.70;99.90;;;;;;5053683;28;20327;-70
2022/10/30 00:36:14;;;;;;;;;;;8.70;99.90;;;;;;5054325;28;19913;-70
2022/10/30 00:38:39;;;;;;;;;;;8.60;99.90;;;;;;5053723;28;20258;-70
2022/10/30 00:41:05;;;;;;;;;;;8.50;99.90;;;;;;5053699;28;20427;-69
2022/10/30 00:43:35;;;;;;;;;;;8.40;99.90;;;;;;5035932;28;20394;-69
2022/10/30 00:46:05;;;;;;;;;;;8.30;99.90;;;;;;5053569;28;19912;-70
2022/10/30 00:48:31;;;;;;;;;;;8.40;99.90;;;;;;5053471;28;19913;-70
2022/10/30 00:50:58;;;;;;;;;;;8.40;99.90;;;;;;5053788;28;20364;-70
2022/10/30 00:53:24;;;;;;;;;;;8.40;99.90;;;;;;5053525;28;19917;-69
2022/10/30 00:55:54;;;;;;;;;;;8.40;99.90;;;;;;5036029;28;20361;-70
2022/10/30 00:58:23;;;;;;;;;;;8.40;99.90;;;;;;5053805;28;19916;-70
2022/10/30 01:00:50;;;;;;;;;;;8.40;99.90;;;;;;5053437;28;20312;-70
2022/10/30 01:03:17;;;;;;;;;;;8.40;99.90;;;;;;5053335;28;20289;-70
2022/10/30 01:05:44;;;;;;;;;;;8.30;99.90;;;;;;5053666;28;19917;-70
2022/10/30 01:08:10;;;;;;;;;;;8.30;99.90;;;;;;5053315;28;20019;-70
2022/10/30 01:10:36;;;;;;;;;;;8.30;99.90;;;;;;5053400;28;19956;-70
2022/10/30 01:13:02;;;;;;;;;;;8.30;99.90;;;;;;5053246;28;19921;-70
2022/10/30 01:15:39;;;;;;;;;;;8.30;99.90;;;;;;5054006;28;19920;-70
2022/10/30 01:18:26;;;;;;;;;;;8.30;99.90;;;;;;5058025;28;19916;-70
2022/10/30 01:20:57;;;;;;;;;;;8.20;99.90;;;;;;5057474;28;19959;-70
2022/10/30 01:23:22;;;;;;;;;;;8.20;99.90;;;;;;5057247;28;20007;-70
2022/10/30 01:26:07;;;;;;;;;;;8.20;99.90;;;;;;5057278;28;19952;-69
2022/10/30 01:28:58;;;;;;;;;;;8.20;99.90;;;;;;5057433;28;19927;-70
2022/10/30 01:31:44;;;;;;;;;;;8.20;99.90;;;;;;5057459;28;19908;-70
2022/10/30 01:34:17;;;;;;;;;;;8.20;99.90;;;;;;5025912;28;19966;-70
2022/10/30 01:36:46;;;;;;;;;;;8.20;99.90;;;;;;5057276;28;19996;-70
2022/10/30 01:39:17;;;;;;;;;;;8.20;99.90;;;;;;5057021;28;19909;-70
2022/10/30 01:41:44;;;;;;;;;;;8.10;99.90;;;;;;5057186;28;19909;-70
2022/10/30 01:44:14;;;;;;;;;;;8.10;99.90;;;;;;5056928;28;19913;-70
2022/10/30 01:46:59;;;;;;;;;;;8.10;99.90;;;;;;5056801;28;19909;-70
2022/10/30 01:49:24;;;;;;;;;;;8.10;99.90;;;;;;5056792;28;19916;-70
2022/10/30 01:52:04;;;;;;;;;;;8.10;99.90;;;;;;5056692;28;20354;-70
2022/10/30 01:54:30;;;;;;;;;;;8.00;99.90;;;;;;5056985;28;20309;-70
2022/10/30 01:57:14;;;;;;;;;;;8.00;99.90;;;;;;5056669;28;19982;-70
2022/10/30 01:59:58;;;;;;;;;;;8.00;99.90;;;;;;5038734;28;20050;-70
2022/10/30 02:02:24;;;;;;;;;;;8.00;99.90;;;;;;5056488;28;19909;-69
2022/10/30 02:04:50;;;;;;;;;;;8.00;99.90;;;;;;5056562;28;19931;-70
2022/10/30 02:07:16;;;;;;;;;;;8.00;99.90;;;;;;5056400;28;20361;-70
2022/10/30 02:09:41;;;;;;;;;;;7.90;99.90;;;;;;5056980;28;19912;-70
2022/10/30 02:12:08;;;;;;;;;;;7.90;99.90;;;;;;5056223;28;20262;-70
2022/10/30 02:14:41;;;;;;;;;;;7.90;99.90;;;;;;5056870;28;19940;-70
2022/10/30 02:17:07;;;;;;;;;;;7.80;99.90;;;;;;5056559;28;20323;-70
2022/10/30 02:19:34;;;;;;;;;;;7.80;99.90;;;;;;5055760;28;20466;-70
2022/10/30 02:22:00;;;;;;;;;;;7.80;99.90;;;;;;5056391;28;19920;-70
2022/10/30 02:24:25;;;;;;;;;;;7.80;99.90;;;;;;5056142;28;19944;-70
2022/10/30 02:26:51;;;;;;;;;;;7.80;99.90;;;;;;5055837;28;20288;-70
2022/10/30 02:29:19;;;;;;;;;;;7.70;99.90;;;;;;5056299;28;20357;-70
2022/10/30 02:31:45;;;;;;;;;;;7.70;99.90;;;;;;5056237;28;19912;-70
2022/10/30 02:34:10;;;;;;;;;;;7.70;99.90;;;;;;5056244;28;20365;-70
2022/10/30 02:36:36;;;;;;;;;;;7.60;99.90;;;;;;5055907;28;19962;-70
2022/10/30 02:39:02;;;;;;;;;;;7.60;99.90;;;;;;5038422;28;20277;-70
2022/10/30 02:41:27;;;;;;;;;;;7.60;99.90;;;;;;5055819;28;19959;-70
2022/10/30 02:43:53;;;;;;;;;;;7.60;99.90;;;;;;5055716;28;19908;-70
2022/10/30 02:46:19;;;;;;;;;;;7.60;99.90;;;;;;5055714;28;20058;-69
2022/10/30 02:48:44;;;;;;;;;;;7.50;99.90;;;;;;5055912;28;19924;-70
2022/10/30 02:51:11;;;;;;;;;;;7.50;99.90;;;;;;5055668;28;19920;-69
2022/10/30 02:53:36;;;;;;;;;;;7.50;99.90;;;;;;5055825;28;20294;-70
2022/10/30 02:56:09;;;;;;;;;;;7.50;99.90;;;;;;5037622;28;19909;-70
2022/10/30 02:58:35;;;;;;;;;;;7.50;99.90;;;;;;5056071;28;19916;-69
2022/10/30 03:01:07;;;;;;;;;;;7.50;99.90;;;;;;5055402;28;19909;-70
2022/10/30 03:03:32;;;;;;;;;;;7.50;99.90;;;;;;5055387;28;20009;-69
2022/10/30 03:06:04;;;;;;;;;;;7.50;99.90;;;;;;5055409;28;19956;-70
2022/10/30 03:08:30;;;;;;;;;;;7.50;99.90;;;;;;5055277;28;19916;-70
2022/10/30 03:11:00;;;;;;;;;;;7.50;99.90;;;;;;5055272;28;20242;-70
2022/10/30 03:13:26;;;;;;;;;;;7.50;99.90;;;;;;5055141;28;19925;-70
2022/10/30 03:15:51;;;;;;;;;;;7.50;99.90;;;;;;5055151;28;19995;-70
2022/10/30 03:18:17;;;;;;;;;;;7.50;99.90;;;;;;5037886;28;20392;-70
2022/10/30 03:20:42;;;;;;;;;;;7.40;99.90;;;;;;5055047;28;20396;-70
2022/10/30 03:23:08;;;;;;;;;;;7.40;99.90;;;;;;5054977;28;19912;-70
2022/10/30 03:25:33;;;;;;;;;;;7.40;99.90;;;;;;5037062;28;19913;-70
2022/10/30 03:27:59;;;;;;;;;;;7.40;99.90;;;;;;5054859;28;19970;-70
2022/10/30 03:30:25;;;;;;;;;;;7.40;99.90;;;;;;5055148;28;19917;-70
2022/10/30 03:32:50;;;;;;;;;;;7.30;99.90;;;;;;5036888;28;19962;-70
2022/10/30 03:35:16;;;;;;;;;;;7.30;99.90;;;;;;5055311;28;20390;-70
2022/10/30 03:37:41;;;;;;;;;;;7.30;99.90;;;;;;5054579;28;19908;-70
2022/10/30 03:40:07;;;;;;;;;;;7.30;99.90;;;;;;5054563;28;19913;-70
2022/10/30 03:42:32;;;;;;;;;;;7.30;99.90;;;;;;5054598;28;19912;-70
2022/10/30 03:44:58;;;;;;;;;;;7.30;99.90;;;;;;5054881;28;19908;-70
2022/10/30 03:47:23;;;;;;;;;;;7.30;99.90;;;;;;5054754;28;19917;-70
2022/10/30 03:49:49;;;;;;;;;;;7.30;99.90;;;;;;5054778;28;19913;-70
2022/10/30 03:52:14;;;;;;;;;;;7.30;99.90;;;;;;5054437;28;20012;-70
2022/10/30 03:54:40;;;;;;;;;;;7.30;99.90;;;;;;5054445;28;19952;-70
2022/10/30 03:57:06;;;;;;;;;;;7.20;99.90;;;;;;5054361;28;19917;-70
2022/10/30 03:59:32;;;;;;;;;;;7.20;99.90;;;;;;5054352;28;19909;-70
2022/10/30 04:01:57;;;;;;;;;;;7.20;99.90;;;;;;5054221;28;20339;-70
2022/10/30 04:04:23;;;;;;;;;;;7.10;99.90;;;;;;5054223;28;20369;-70
2022/10/30 04:06:48;;;;;;;;;;;7.10;99.90;;;;;;5054413;28;19962;-70
2022/10/30 04:09:14;;;;;;;;;;;7.10;99.90;;;;;;5054171;28;19913;-70
2022/10/30 04:11:39;;;;;;;;;;;7.00;99.90;;;;;;5053930;28;19999;-70
2022/10/30 04:14:05;;;;;;;;;;;7.00;99.90;;;;;;5054165;28;19913;-70
2022/10/30 04:16:30;;;;;;;;;;;7.00;99.90;;;;;;5054046;28;19920;-70
2022/10/30 04:18:57;;;;;;;;;;;7.00;99.90;;;;;;5054717;28;20019;-71
2022/10/30 04:21:22;;;;;;;;;;;7.00;99.90;;;;;;5054354;28;19909;-72
2022/10/30 04:23:48;;;;;;;;;;;7.00;99.90;;;;;;5052669;28;19912;-72
2022/10/30 04:26:14;;;;;;;;;;;6.90;99.90;;;;;;5031023;28;20004;-72
2022/10/30 04:28:39;;;;;;;;;;;6.90;99.90;;;;;;5053817;28;19917;-72
2022/10/30 04:31:05;;;;;;;;;;;6.90;99.90;;;;;;5052548;28;19952;-71
2022/10/30 04:33:30;;;;;;;;;;;6.90;99.90;;;;;;5053596;28;19913;-72
2022/10/30 04:35:56;;;;;;;;;;;6.90;99.90;;;;;;5052512;28;19945;-71
2022/10/30 04:38:21;;;;;;;;;;;6.90;99.90;;;;;;5053373;28;20001;-72
2022/10/30 04:40:47;;;;;;;;;;;6.90;99.90;;;;;;5034987;28;19939;-72
2022/10/30 04:43:13;;;;;;;;;;;6.90;99.90;;;;;;5046750;28;19913;-72
2022/10/30 04:45:40;;;;;;;;;;;6.90;99.90;;;;;;5052418;28;19909;-71
2022/10/30 04:48:15;;;;;;;;;;;6.90;99.90;;;;;;5051941;28;19913;-72
2022/10/30 04:50:43;;;;;;;;;;;6.80;99.90;;;;;;5031646;28;19909;-72
2022/10/30 04:53:12;;;;;;;;;;;6.80;99.90;;;;;;5016342;28;19962;-72
2022/10/30 04:55:38;;;;;;;;;;;6.80;99.90;;;;;;5047558;28;19920;-72
2022/10/30 04:58:04;;;;;;;;;;;6.70;99.90;;;;;;5053288;28;19912;-72
2022/10/30 05:00:30;;;;;;;;;;;6.70;99.90;;;;;;5052804;28;19915;-72
2022/10/30 05:02:59;;;;;;;;;;;6.70;99.90;;;;;;5053157;28;19912;-72
2022/10/30 05:05:25;;;;;;;;;;;6.60;99.90;;;;;;5052830;28;19959;-72
2022/10/30 05:07:51;;;;;;;;;;;6.60;99.90;;;;;;5053667;28;19967;-72
2022/10/30 05:10:17;;;;;;;;;;;6.70;99.90;;;;;;5044926;28;19913;-72
2022/10/30 05:12:43;;;;;;;;;;;6.70;99.90;;;;;;5033356;28;19917;-72
2022/10/30 05:15:09;;;;;;;;;;;6.60;99.90;;;;;;5034315;28;19931;-71
2022/10/30 05:17:35;;;;;;;;;;;6.60;99.90;;;;;;5052995;28;19912;-72
2022/10/30 05:20:00;;;;;;;;;;;6.60;99.90;;;;;;5052865;28;20293;-71
2022/10/30 05:22:26;;;;;;;;;;;6.60;99.90;;;;;;5053029;28;20261;-72
2022/10/30 05:24:51;;;;;;;;;;;6.60;99.90;;;;;;5035106;28;19913;-72
2022/10/30 05:27:17;;;;;;;;;;;6.60;99.90;;;;;;5052376;28;19960;-72
2022/10/30 05:29:42;;;;;;;;;;;6.60;99.90;;;;;;5053472;28;19913;-73
2022/10/30 05:32:08;;;;;;;;;;;6.60;99.90;;;;;;5034523;28;19920;-72
2022/10/30 05:34:33;;;;;;;;;;;6.60;99.90;;;;;;5052896;28;20003;-73
2022/10/30 05:37:00;;;;;;;;;;;6.60;99.90;;;;;;5052508;28;19913;-73
2022/10/30 05:39:26;;;;;;;;;;;6.60;99.90;;;;;;5053074;28;20336;-71
2022/10/30 05:41:51;;;;;;;;;;;6.60;99.90;;;;;;5052141;28;19909;-72
2022/10/30 05:44:17;;;;;;;;;;;6.60;99.90;;;;;;5035298;28;19915;-73
2022/10/30 05:46:43;;;;;;;;;;;6.60;99.90;;;;;;5052350;28;19963;-73
2022/10/30 05:49:08;;;;;;;;;;;6.60;99.90;;;;;;5053037;28;19916;-73
2022/10/30 05:51:34;;;;;;;;;;;6.60;99.90;;;;;;5053430;28;20336;-72
2022/10/30 05:53:59;;;;;;;;;;;6.60;99.90;;;;;;5052255;28;20340;-73
2022/10/30 05:56:25;;;;;;;;;;;6.50;99.90;;;;;;5052841;28;19917;-72
2022/10/30 05:58:50;;;;;;;;;;;6.50;99.90;;;;;;5052316;28;19913;-73
2022/10/30 06:01:16;;;;;;;;;;;6.40;99.90;;;;;;5053022;28;19924;-72
2022/10/30 06:03:42;;;;;;;;;;;6.40;99.90;;;;;;5055728;28;19909;-72
2022/10/30 06:06:08;;;;;;;;;;;6.40;99.90;;;;;;5056286;28;19913;-72
2022/10/30 06:08:33;;;;;;;;;;;6.40;99.90;;;;;;5055641;28;19917;-72
2022/10/30 06:10:59;;;;;;;;;;;6.30;99.90;;;;;;5056726;28;19955;-71
2022/10/30 06:13:25;;;;;;;;;;;6.30;99.90;;;;;;5055365;28;19935;-72
2022/10/30 06:15:52;;;;;;;;;;;6.30;99.90;;;;;;5056387;28;19913;-73
2022/10/30 06:18:18;;;;;;;;;;;6.30;99.90;;;;;;5055589;28;20006;-72
2022/10/30 06:20:44;;;;;;;;;;;6.30;99.90;;;;;;5056525;28;19913;-73
2022/10/30 06:23:09;;;;;;;;;;;6.30;99.90;;;;;;5055666;28;19925;-72
2022/10/30 06:25:35;;;;;;;;;;;6.30;99.90;;;;;;5056497;28;19920;-73
2022/10/30 06:28:01;;;;;;;;;;;6.40;99.90;;;;;;5055756;28;19917;-73
2022/10/30 06:30:27;;;;;;;;;;;6.40;99.90;;;;;;5037315;28;19996;-72
2022/10/30 06:32:56;;;;;;;;;;;6.40;99.90;;;;;;5035881;28;19909;-73
2022/10/30 06:35:22;;;;;;;;;;;6.40;99.90;;;;;;5053387;28;19913;-73
2022/10/30 06:37:48;;;;;;;;;;;6.40;99.90;;;;;;5056128;28;19912;-72
2022/10/30 06:40:14;;;;;;;;;;;6.40;99.90;;;;;;5055140;28;19909;-72
2022/10/30 06:42:47;;;;;;;;;;;6.50;99.90;;;;;;5055590;28;19931;-72
2022/10/30 06:45:13;;;;;;;;;;;6.50;99.90;;;;;;5054052;28;19909;-72
2022/10/30 06:47:39;;;;;;;;;;;6.50;99.90;;;;;;5055713;28;19912;-73
2022/10/30 06:50:06;;;;;;;;;;;6.50;99.90;;;;;;5054660;28;20003;-73
2022/10/30 06:52:32;;;;;;;;;;;6.50;99.90;;;;;;5055218;28;19909;-72
2022/10/30 06:54:57;;;;;;;;;;;6.50;99.90;;;;;;5054551;28;19909;-73
2022/10/30 06:57:23;;;;;;;;;;;6.50;99.90;;;;;;5055555;28;20404;-73
2022/10/30 06:59:48;;;;;;;;;;;6.50;99.90;;;;;;5050377;28;20008;-72
2022/10/30 07:02:14;;;;;;;;;;;6.60;99.90;;;;;;5035789;28;19920;-72
2022/10/30 07:04:39;;;;;;;;;;;6.60;99.90;;;;;;5035272;28;19917;-72
2022/10/30 07:07:05;;;;;;;;;;;6.60;99.90;;;;;;5053348;28;19917;-71
2022/10/30 07:09:31;;;;;;;;;;;6.70;99.90;;;;;;5054656;28;19920;-73
2022/10/30 07:11:57;;;;;;;;;;;6.70;99.90;;;;;;5055354;28;19952;-73
2022/10/30 07:14:23;;;;;;;;;;;6.80;99.90;;;;;;5054562;28;19962;-72
2022/10/30 07:16:48;;;;;;;;;;;6.80;99.90;;;;;;5054973;28;19913;-73
2022/10/30 07:19:14;;;;;;;;;;;6.90;99.90;;;;;;5055125;28;19913;-73
2022/10/30 07:21:39;;;;;;;;;;;7.00;99.90;;;;;;5055211;28;20282;-73
2022/10/30 07:24:05;;;;;;;;;;;7.00;99.90;;;;;;5055045;28;19917;-74
2022/10/30 07:26:32;;;;;;;;;;;7.10;99.90;;;;;;5054955;28;19969;-74
2022/10/30 07:28:57;;;;;;;;;;;7.10;99.90;;;;;;5055229;28;20479;-74
2022/10/30 07:31:23;;;;;;;;;;;7.30;99.90;;;;;;5055010;28;19963;-74
2022/10/30 07:33:49;;;;;;;;;;;7.30;99.90;;;;;;5054947;28;20392;-74
2022/10/30 07:36:14;;;;;;;;;;;7.40;99.90;;;;;;5037275;28;19909;-75
2022/10/30 07:38:43;;;;;;;;;;;7.50;99.90;;;;;;5036857;28;19908;-74
2022/10/30 07:41:08;;;;;;;;;;;7.60;99.90;;;;;;5036815;28;20003;-75
2022/10/30 07:43:34;;;;;;;;;;;7.60;99.90;;;;;;5054587;28;20025;-75
2022/10/30 07:45:59;;;;;;;;;;;7.70;99.90;;;;;;5054962;28;19928;-75
2022/10/30 07:48:25;;;;;;;;;;;7.80;99.90;;;;;;5054682;28;19920;-75
2022/10/30 07:50:50;;;;;;;;;;;7.90;99.90;;;;;;5037008;28;19913;-75
2022/10/30 07:53:16;;;;;;;;;;;8.00;99.90;;;;;;5054637;28;19917;-75
2022/10/30 07:55:41;;;;;;;;;;;8.10;99.90;;;;;;5055155;28;19939;-75
2022/10/30 07:58:07;;;;;;;;;;;8.20;99.90;;;;;;5055745;28;19963;-75
2022/10/30 08:00:33;;;;;;;;;;;8.30;99.90;;;;;;5055550;28;19945;-75
2022/10/30 08:02:58;;;;;;;;;;;8.40;99.90;;;;;;5054798;28;19913;-75
2022/10/30 08:05:24;;;;;;;;;;;8.50;99.90;;;;;;5054676;28;19958;-75
2022/10/30 08:07:49;;;;;;;;;;;8.70;99.90;;;;;;5036418;28;20380;-75
2022/10/30 08:10:15;;;;;;;;;;;8.80;99.90;;;;;;5054205;28;19913;-75
2022/10/30 08:12:42;;;;;;;;;;;8.90;99.90;;;;;;5054180;28;19917;-75
2022/10/30 08:15:08;;;;;;;;;;;9.10;99.90;;;;;;5054626;28;19912;-75
2022/10/30 08:17:39;;;;;;;;;;;9.20;99.90;;;;;;5054410;28;20408;-75
2022/10/30 08:20:05;;;;;;;;;;;9.30;99.90;;;;;;5054916;28;19909;-75
2022/10/30 08:22:31;;;;;;;;;;;9.40;99.90;;;;;;5054263;28;19959;-75
2022/10/30 08:24:56;;;;;;;;;;;9.50;99.90;;;;;;5035848;28;19916;-75
2022/10/30 08:27:22;;;;;;;;;;;9.70;99.90;;;;;;5053799;28;19917;-75
2022/10/30 08:29:47;;;;;;;;;;;9.80;99.90;;;;;;5054116;28;19920;-75
2022/10/30 08:32:13;;;;;;;;;;;9.90;99.90;;;;;;5035956;28;19920;-74
2022/10/30 08:34:38;;;;;;;;;;;10.00;99.90;;;;;;5053781;28;20328;-75
2022/10/30 08:37:06;;;;;;;;;;;10.10;99.90;;;;;;5053779;28;20436;-75
2022/10/30 08:39:32;;;;;;;;;;;10.20;99.90;;;;;;5053768;28;19909;-74
2022/10/30 08:41:58;;;;;;;;;;;10.30;99.90;;;;;;5053732;28;19976;-74
2022/10/30 08:44:24;;;;;;;;;;;10.40;99.90;;;;;;5053666;28;19908;-74
2022/10/30 08:46:49;;;;;;;;;;;10.50;99.90;;;;;;5053870;28;20281;-75
2022/10/30 08:49:15;;;;;;;;;;;10.50;99.90;;;;;;5053878;28;19916;-75
2022/10/30 08:51:41;;;;;;;;;;;10.70;99.90;;;;;;5053483;28;19913;-75
2022/10/30 08:54:08;;;;;;;;;;;10.80;99.90;;;;;;5053784;28;19920;-75
2022/10/30 08:56:33;;;;;;;;;;;10.90;99.90;;;;;;5053518;28;19913;-75
2022/10/30 08:58:59;;;;;;;;;;;11.10;99.90;;;;;;5053705;28;19920;-75
2022/10/30 09:01:24;;;;;;;;;;;11.20;99.90;;;;;;5054090;28;20340;-75
2022/10/30 09:03:50;;;;;;;;;;;11.40;99.90;;;;;;5053439;28;19915;-74
2022/10/30 09:06:15;;;;;;;;;;;11.50;99.90;;;;;;5035611;28;19913;-75
2022/10/30 09:08:41;;;;;;;;;;;11.70;99.90;;;;;;5035469;28;19924;-75
2022/10/30 09:11:06;;;;;;;;;;;11.80;99.90;;;;;;5053886;28;19913;-75
2022/10/30 09:13:32;;;;;;;;;;;11.90;99.90;;;;;;5035420;28;20361;-75
2022/10/30 09:16:01;;;;;;;;;;;12.10;99.90;;;;;;5053296;28;19935;-75
2022/10/30 09:18:27;;;;;;;;;;;12.20;99.90;;;;;;5035442;28;19917;-75
2022/10/30 09:20:52;;;;;;;;;;;12.30;99.90;;;;;;5053365;28;19931;-75
2022/10/30 09:23:18;;;;;;;;;;;12.40;99.90;;;;;;5053225;28;19909;-75
2022/10/30 09:25:43;;;;;;;;;;;12.50;99.90;;;;;;5053220;28;20392;-75
2022/10/30 09:28:09;;;;;;;;;;;12.70;99.90;;;;;;5053662;28;20380;-75
2022/10/30 09:30:34;;;;;;;;;;;12.80;99.90;;;;;;5053190;28;20422;-75
2022/10/30 09:33:03;;;;;;;;;;;12.90;99.90;;;;;;5035385;28;20385;-75
2022/10/30 09:35:29;;;;;;;;;;;13.00;99.90;;;;;;5053069;28;19909;-75
2022/10/30 09:37:55;;;;;;;;;;;13.20;99.90;;;;;;5056326;28;19924;-75
2022/10/30 09:40:38;;;;;;;;;;;13.30;99.90;;;;;;5039367;28;20274;-75
2022/10/30 09:43:18;;;;;;;;;;;13.40;99.90;;;;;;5057455;28;19909;-74
2022/10/30 09:45:50;;;;;;;;;;;13.50;99.90;;;;;;5057097;28;19909;-74
2022/10/30 09:48:21;;;;;;;;;;;13.60;99.90;;;;;;5057083;28;20280;-74
2022/10/30 09:50:58;;;;;;;;;;;13.80;99.90;;;;;;5056715;28;20277;-73
2022/10/30 09:53:26;;;;;;;;;;;13.90;99.90;;;;;;5056801;28;19934;-73
2022/10/30 09:56:01;;;;;;;;;;;14.10;99.90;;;;;;5056672;28;19908;-73
2022/10/30 09:58:26;;;;;;;;;;;14.20;99.90;;;;;;5057189;28;19963;-74
2022/10/30 10:00:55;;;;;;;;;;;14.40;99.90;;;;;;5038772;28;19912;-73
2022/10/30 10:03:20;;;;;;;;;;;14.50;99.90;;;;;;5056572;28;19915;-73
2022/10/30 10:05:58;;;;;;;;;;;14.70;99.90;;;;;;5056463;28;20007;-74
2022/10/30 10:08:41;;;;;;;;;;;14.80;99.90;;;;;;5056710;28;19912;-74
2022/10/30 10:11:13;;;;;;;;;;;15.00;99.90;;;;;;5056647;28;19913;-75
2022/10/30 10:13:44;;;;;;;;;;;15.20;99.90;;;;;;5056420;28;19983;-74
2022/10/30 10:16:13;;;;;;;;;;;15.30;99.90;;;;;;5056432;28;19958;-74
2022/10/30 10:19:04;;;;;;;;;;;15.40;99.90;;;;;;5056809;28;19917;-70
2022/10/30 10:21:32;;;;;;;;;;;15.50;99.90;;;;;;5053420;28;19909;-70
2022/10/30 10:23:59;;;;;;;;;;;15.60;99.90;;;;;;5057032;28;19916;-69
2022/10/30 10:26:29;;;;;;;;;;;15.70;99.90;;;;;;5056321;28;20332;-69
2022/10/30 10:29:04;;;;;;;;;;;15.80;99.90;;;;;;5056375;28;19913;-69
2022/10/30 10:31:43;;;;;;;;;;;15.90;99.90;;;;;;5056331;28;19909;-69
2022/10/30 10:34:09;;;;;;;;;;;16.00;99.90;;;;;;5056261;28;19916;-69
2022/10/30 10:36:34;;;;;;;;;;;16.10;99.90;;;;;;5056229;28;20424;-69
2022/10/30 10:39:18;;;;;;;;;;;16.20;99.90;;;;;;5038000;28;19915;-69
2022/10/30 10:41:53;;;;;;;;;;;16.30;99.90;;;;;;5055763;28;19909;-69
2022/10/30 10:44:24;;;;;;;;;;;16.40;99.90;;;;;;5055832;28;19909;-69
2022/10/30 10:46:57;;;;;;;;;;;16.50;99.90;;;;;;5056326;28;19915;-69
2022/10/30 10:49:30;;;;;;;;;;;16.60;99.90;;;;;;5037705;28;19994;-68
2022/10/30 10:51:58;;;;;;;;;;;16.70;99.90;;;;;;5056000;28;19913;-69
2022/10/30 10:54:24;;;;;;;;;;;16.80;99.90;;;;;;5056212;28;19908;-69
2022/10/30 10:56:50;;;;;;;;;;;16.90;99.90;;;;;;5055650;28;20376;-69
2022/10/30 10:59:24;;;;;;;;;;;17.00;99.90;;;;;;5055840;28;20431;-69
2022/10/30 11:01:57;;;;;;;;;;;17.10;99.90;;;;;;5055419;28;19995;-69
2022/10/30 11:04:39;;;;;;;;;;;17.20;99.90;;;;;;5055531;28;19971;-69
2022/10/30 11:07:20;;;;;;;;;;;17.30;99.90;;;;;;5055335;28;19962;-69
2022/10/30 11:09:47;;;;;;;;;;;17.40;99.90;;;;;;5055378;28;20007;-69
2022/10/30 11:12:12;;;;;;;;;;;17.50;99.90;;;;;;5055178;28;19924;-69
2022/10/30 11:14:38;;;;;;;;;;;17.60;99.90;;;;;;5055246;28;19913;-69
2022/10/30 11:17:04;;;;;;;;;;;17.70;99.90;;;;;;5055547;28;19966;-68
2022/10/30 11:19:30;;;;;;;;;;;17.80;99.90;;;;;;5037552;28;19938;-70
2022/10/30 11:21:56;;;;;;;;;;;17.80;99.90;;;;;;5054979;28;20297;-69
2022/10/30 11:24:26;;;;;;;;;;;17.90;99.90;;;;;;5055697;28;19913;-69
2022/10/30 11:26:52;;;;;;;;;;;18.00;99.90;;;;;;5037340;28;19909;-69
2022/10/30 11:29:22;;;;;;;;;;;18.10;99.90;;;;;;5054265;28;19920;-69
2022/10/30 11:31:57;;;;;;;;;;;18.20;99.90;;;;;;5054782;28;20297;-69
2022/10/30 11:34:27;;;;;;;;;;;18.30;99.90;;;;;;5054691;28;20285;-69
2022/10/30 11:36:53;;;;;;;;;;;18.40;99.90;;;;;;5053676;28;19909;-69
2022/10/30 11:39:19;;;;;;;;;;;18.50;99.90;;;;;;5054657;28;19995;-70
2022/10/30 11:41:47;;;;;;;;;;;18.50;99.90;;;;;;5054505;28;20006;-69
2022/10/30 11:44:13;;;;;;;;;;;18.60;99.90;;;;;;5054568;28;20385;-69
2022/10/30 11:46:38;;;;;;;;;;;18.70;99.90;;;;;;5054573;28;19940;-69
2022/10/30 11:49:04;;;;;;;;;;;18.80;99.90;;;;;;5054444;28;20023;-69
2022/10/30 11:51:32;;;;;;;;;;;18.80;99.90;;;;;;5053301;28;19917;-69
2022/10/30 11:53:58;;;;;;;;;;;18.90;99.90;;;;;;5036295;28;19909;-69
2022/10/30 11:56:24;;;;;;;;;;;19.00;99.90;;;;;;5036442;28;19940;-69
2022/10/30 11:58:52;;;;;;;;;;;19.10;99.90;;;;;;5054176;28;19920;-69
2022/10/30 12:01:25;;;;;;;;;;;19.20;99.90;;;;;;5047732;28;19966;-69
2022/10/30 12:03:52;;;;;;;;;;;19.30;99.90;;;;;;5036520;28;19915;-69
2022/10/30 12:06:24;;;;;;;;;;;19.30;99.90;;;;;;5053916;28;19909;-69
2022/10/30 12:09:03;;;;;;;;;;;19.40;99.90;;;;;;5054155;28;19913;-69
2022/10/30 12:11:30;;;;;;;;;;;19.50;99.90;;;;;;5054102;28;19944;-69
2022/10/30 12:13:56;;;;;;;;;;;19.60;99.90;;;;;;5053878;28;19923;-69
2022/10/30 12:16:21;;;;;;;;;;;19.70;99.90;;;;;;5053952;28;19912;-69
2022/10/30 12:18:53;;;;;;;;;;;19.90;99.90;;;;;;5053943;28;20292;-69
2022/10/30 12:21:19;;;;;;;;;;;19.90;99.90;;;;;;5053602;28;19915;-69
2022/10/30 12:23:50;;;;;;;;;;;20.10;99.90;;;;;;5053850;28;19913;-69
2022/10/30 12:26:15;;;;;;;;;;;20.10;99.90;;;;;;5053978;28;19953;-69
2022/10/30 12:28:48;;;;;;;;;;;20.30;99.90;;;;;;5053251;28;19917;-69
2022/10/30 12:31:19;;;;;;;;;;;20.30;99.90;;;;;;5035318;28;20437;-69
2022/10/30 12:34:03;;;;;;;;;;;20.40;99.90;;;;;;5053167;28;19995;-69
2022/10/30 12:36:32;;;;;;;;;;;20.50;99.90;;;;;;5053184;28;19916;-70
2022/10/30 12:39:01;;;;;;;;;;;20.60;99.90;;;;;;5053606;28;19909;-70
2022/10/30 12:41:45;;;;;;;;;;;20.60;99.90;;;;;;5053909;28;19912;-70
2022/10/30 12:44:32;;;;;;;;;;;20.80;99.90;;;;;;5053931;28;19909;-70
2022/10/30 12:47:10;;;;;;;;;;;20.90;99.90;;;;;;5053843;28;19952;-71
2022/10/30 12:49:52;;;;;;;;;;;21.10;99.90;;;;;;5053925;28;19909;-70
2022/10/30 12:52:33;;;;;;;;;;;21.10;98.70;;;;;;5053459;28;19916;-70
2022/10/30 12:55:01;;;;;;;;;;;21.20;98.90;;;;;;5053565;28;20291;-70
2022/10/30 12:57:32;;;;;;;;;;;21.20;97.40;;;;;;5053565;28;19952;-70
2022/10/30 13:00:02;;;;;;;;;;;21.20;95.90;;;;;;5053809;28;19931;-70
2022/10/30 13:02:36;;;;;;;;;;;21.20;94.80;;;;;;5053363;28;19909;-71
2022/10/30 13:05:04;;;;;;;;;;;21.10;95.70;;;;;;5035564;28;20392;-70
2022/10/30 13:07:30;;;;;;;;;;;21.10;96.60;;;;;;5053348;28;19912;-70
2022/10/30 13:10:14;;;;;;;;;;;21.10;97.10;;;;;;5053920;28;19955;-70
2022/10/30 13:12:41;;;;;;;;;;;21.10;95.90;;;;;;5037990;28;19921;-70
2022/10/30 13:15:16;;;;;;;;;;;21.20;97.50;;;;;;5039588;28;20041;-70
2022/10/30 13:17:42;;;;;;;;;;;21.30;98.30;;;;;;5057669;28;19951;-70
2022/10/30 13:20:11;;;;;;;;;;;21.40;97.10;;;;;;5057681;28;19909;-70
2022/10/30 13:22:40;;;;;;;;;;;21.40;97.60;;;;;;5057234;28;19919;-70
2022/10/30 13:25:34;;;;;;;;;;;21.50;97.60;;;;;;5057931;28;19916;-70
2022/10/30 13:28:11;;;;;;;;;;;21.50;97.80;;;;;;5043956;28;19971;-70
2022/10/30 13:30:39;;;;;;;;;;;21.60;97.40;;;;;;5057517;28;19916;-70
2022/10/30 13:33:28;;;;;;;;;;;21.70;97.40;;;;;;5057066;28;19909;-69
2022/10/30 13:35:57;;;;;;;;;;;21.70;97.10;;;;;;5049046;28;19909;-67
2022/10/30 13:38:42;;;;;;;;;;;21.70;96.90;;;;;;5057025;28;19909;-67
2022/10/30 13:41:07;;;;;;;;;;;21.80;97.80;;;;;;5039094;28;19909;-67
2022/10/30 13:43:40;;;;;;;;;;;21.90;98.20;;;;;;5056976;28;19915;-67
2022/10/30 13:46:16;;;;;;;;;;;22.00;97.80;;;;;;5057299;28;20013;-67
2022/10/30 13:49:00;;;;;;;;;;;22.00;97.60;;;;;;5057104;28;20276;-67
2022/10/30 13:51:44;;;;;;;;;;;22.10;96.00;;;;;;5056852;28;19977;-67
2022/10/30 13:54:09;;;;;;;;;;;22.10;93.70;;;;;;5057128;28;20331;-67
2022/10/30 13:56:35;;;;;;;;;;;22.10;94.30;;;;;;5057074;28;19947;-67
2022/10/30 13:59:07;;;;;;;;;;;22.10;94.30;;;;;;5057064;28;20016;-67
2022/10/30 14:01:44;;;;;;;;;;;22.20;94.10;;;;;;5039158;28;20381;-67
2022/10/30 14:04:10;;;;;;;;;;;22.20;94.30;;;;;;5056694;28;20007;-67
2022/10/30 14:06:54;;;;;;;;;;;22.20;94.00;;;;;;5056620;28;20410;-67
2022/10/30 14:09:20;;;;;;;;;;;22.20;94.10;;;;;;5056712;28;19913;-67
2022/10/30 14:11:45;;;;;;;;;;;22.10;94.20;;;;;;5038464;28;19916;-68
2022/10/30 14:14:30;;;;;;;;;;;22.10;94.00;;;;;;5038912;28;19920;-67
2022/10/30 14:17:09;;;;;;;;;;;22.10;93.90;;;;;;5056703;28;19913;-67
2022/10/30 14:20:01;;;;;;;;;;;22.10;93.60;;;;;;5056853;28;19908;-67
2022/10/30 14:22:26;;;;;;;;;;;22.00;93.30;;;;;;5032172;28;20338;-67
2022/10/30 14:24:52;;;;;;;;;;;21.90;92.70;;;;;;5038321;28;19999;-67
2022/10/30 14:27:20;;;;;;;;;;;21.90;92.80;;;;;;5038330;28;20010;-67
2022/10/30 14:29:47;;;;;;;;;;;21.80;93.00;;;;;;5056659;28;19908;-67
2022/10/30 14:32:12;;;;;;;;;;;21.80;93.30;;;;;;5055994;28;20357;-67